createdAt,value
2023-04-16T00:00:31.066Z,32.10
2023-04-16T00:01:31.053Z,32.13
2023-04-16T00:02:31.148Z,32.11
2023-04-16T00:03:31.155Z,32.15
2023-04-16T00:04:31.229Z,32.10
2023-04-16T00:05:31.036Z,32.09
2023-04-16T00:06:31.019Z,32.12
2023-04-16T00:07:31.006Z,32.17
2023-04-16T00:08:31.030Z,32.13
2023-04-16T00:09:30.984Z,32.13
2023-04-16T00:10:31.017Z,32.16
2023-04-16T00:11:30.995Z,32.07
2023-04-16T00:12:30.979Z,32.14
2023-04-16T00:13:30.982Z,32.11
2023-04-16T00:14:30.975Z,32.15
2023-04-16T00:15:30.941Z,32.20
2023-04-16T00:16:30.952Z,32.11
2023-04-16T00:17:30.975Z,32.15
2023-04-16T00:18:30.924Z,32.11
2023-04-16T00:19:30.926Z,32.14
2023-04-16T00:20:30.936Z,32.14
2023-04-16T00:21:30.926Z,32.15
2023-04-16T00:22:30.888Z,32.17
2023-04-16T00:23:30.914Z,32.17
2023-04-16T00:24:30.902Z,32.15
2023-04-16T00:25:30.892Z,32.16
2023-04-16T00:26:30.872Z,32.16
2023-04-16T00:27:30.863Z,32.22
2023-04-16T00:28:30.845Z,32.20
2023-04-16T00:29:30.856Z,32.18
2023-04-16T00:30:30.816Z,32.17
2023-04-16T00:31:30.935Z,32.16
2023-04-16T00:32:30.871Z,32.19
2023-04-16T00:33:30.840Z,32.20
2023-04-16T00:34:30.813Z,32.19
2023-04-16T00:35:30.825Z,32.18
2023-04-16T00:36:30.820Z,32.22
2023-04-16T00:37:30.801Z,32.18
2023-04-16T00:38:30.807Z,32.20
2023-04-16T00:39:30.775Z,32.18
2023-04-16T00:40:30.772Z,32.16
2023-04-16T00:41:30.741Z,32.23
2023-04-16T00:42:30.768Z,32.19
2023-04-16T00:43:30.771Z,32.20
2023-04-16T00:44:30.726Z,32.21
2023-04-16T00:45:30.722Z,32.22
2023-04-16T00:46:30.749Z,32.21
2023-04-16T00:47:30.758Z,32.24
2023-04-16T00:48:30.719Z,32.22
2023-04-16T00:49:30.692Z,32.19
2023-04-16T00:50:30.718Z,32.22
2023-04-16T00:51:30.684Z,32.21
2023-04-16T00:52:30.690Z,32.25
2023-04-16T00:53:30.675Z,32.28
2023-04-16T00:54:30.653Z,32.22
2023-04-16T00:55:30.675Z,32.23
2023-04-16T00:56:30.662Z,32.21
2023-04-16T00:57:30.662Z,32.24
2023-04-16T00:58:30.657Z,32.26
2023-04-16T00:59:30.632Z,32.23
2023-04-16T01:00:30.601Z,32.22
2023-04-16T01:01:30.665Z,32.25
2023-04-16T01:02:30.710Z,32.22
2023-04-16T01:03:31.005Z,32.24
2023-04-16T01:04:30.683Z,32.25
2023-04-16T01:05:30.617Z,32.26
2023-04-16T01:06:30.631Z,32.24
2023-04-16T01:07:30.653Z,32.29
2023-04-16T01:08:30.690Z,32.26
2023-04-16T01:09:30.756Z,32.26
2023-04-16T01:10:30.745Z,32.25
2023-04-16T01:11:30.777Z,32.26
2023-04-16T01:12:30.813Z,32.24
2023-04-16T01:13:30.835Z,32.23
2023-04-16T01:14:30.906Z,32.22
2023-04-16T01:15:30.875Z,32.26
2023-04-16T01:16:30.938Z,32.27
2023-04-16T01:17:31.034Z,32.29
2023-04-16T01:18:31.012Z,32.26
2023-04-16T01:19:31.151Z,32.24
2023-04-16T01:20:31.067Z,32.28
2023-04-16T01:21:31.096Z,32.28
2023-04-16T01:22:31.122Z,32.29
2023-04-16T01:23:31.139Z,32.27
2023-04-16T01:24:32.184Z,32.28
2023-04-16T01:25:31.171Z,32.22
2023-04-16T01:26:31.230Z,32.30
2023-04-16T01:27:31.253Z,32.24
2023-04-16T01:28:31.361Z,32.28
2023-04-16T01:29:31.326Z,32.28
2023-04-16T01:30:31.371Z,32.28
2023-04-16T01:31:31.400Z,32.30
2023-04-16T01:32:31.441Z,32.27
2023-04-16T01:33:31.446Z,32.29
2023-04-16T01:34:31.444Z,32.28
2023-04-16T01:35:31.522Z,32.31
2023-04-16T01:36:31.523Z,32.28
2023-04-16T01:37:31.538Z,32.29
2023-04-16T01:38:31.628Z,32.33
2023-04-16T01:39:31.636Z,32.28
2023-04-16T01:40:31.655Z,32.30
2023-04-16T01:41:31.698Z,32.30
2023-04-16T01:42:31.696Z,32.34
2023-04-16T01:43:31.740Z,32.31
2023-04-16T01:44:31.773Z,32.27
2023-04-16T01:45:31.803Z,32.31
2023-04-16T01:46:31.857Z,32.30
2023-04-16T01:47:31.882Z,32.31
2023-04-16T01:48:31.870Z,32.30
2023-04-16T01:49:31.897Z,32.32
2023-04-16T01:50:31.951Z,32.32
2023-04-16T01:51:31.992Z,32.26
2023-04-16T01:52:32.003Z,32.31
2023-04-16T01:53:32.030Z,32.33
2023-04-16T01:54:32.087Z,32.34
2023-04-16T01:55:32.121Z,32.34
2023-04-16T01:56:32.158Z,32.24
2023-04-16T01:57:32.167Z,32.29
2023-04-16T01:58:32.176Z,32.32
2023-04-16T01:59:32.216Z,32.31
2023-04-16T02:00:32.305Z,32.31
2023-04-16T02:01:32.296Z,32.33
2023-04-16T02:02:32.425Z,32.32
2023-04-16T02:03:32.466Z,32.27
2023-04-16T02:04:32.387Z,32.29
2023-04-16T02:05:32.420Z,32.36
2023-04-16T02:06:32.443Z,32.35
2023-04-16T02:07:32.481Z,32.32
2023-04-16T02:08:32.514Z,32.37
2023-04-16T02:09:32.540Z,32.33
2023-04-16T02:10:32.579Z,32.31
2023-04-16T02:11:32.605Z,32.32
2023-04-16T02:12:32.628Z,32.35
2023-04-16T02:13:32.653Z,32.32
2023-04-16T02:14:32.691Z,32.29
2023-04-16T02:15:32.736Z,32.33
2023-04-16T02:16:32.798Z,32.27
2023-04-16T02:17:32.817Z,32.32
2023-04-16T02:18:32.822Z,32.28
2023-04-16T02:19:32.848Z,32.30
2023-04-16T02:20:32.894Z,32.26
2023-04-16T02:21:32.951Z,32.32
2023-04-16T02:22:32.975Z,32.36
2023-04-16T02:23:32.989Z,32.31
2023-04-16T02:24:33.036Z,32.32
2023-04-16T02:25:33.028Z,32.33
2023-04-16T02:26:33.099Z,32.31
2023-04-16T02:27:33.109Z,32.31
2023-04-16T02:28:33.146Z,32.35
2023-04-16T02:29:33.167Z,32.36
2023-04-16T02:30:33.193Z,32.32
2023-04-16T02:31:33.259Z,32.33
2023-04-16T02:32:33.336Z,32.33
2023-04-16T02:33:33.324Z,32.31
2023-04-16T02:34:33.337Z,32.33
2023-04-16T02:35:33.365Z,32.33
2023-04-16T02:36:33.430Z,32.33
2023-04-16T02:37:33.437Z,32.28
2023-04-16T02:38:33.469Z,32.31
2023-04-16T02:39:33.489Z,32.32
2023-04-16T02:40:33.542Z,32.33
2023-04-16T02:41:33.582Z,32.35
2023-04-16T02:42:33.617Z,32.33
2023-04-16T02:43:33.644Z,32.37
2023-04-16T02:44:33.674Z,32.29
2023-04-16T02:45:33.756Z,32.34
2023-04-16T02:46:33.770Z,32.31
2023-04-16T02:47:33.845Z,32.34
2023-04-16T02:48:33.854Z,32.35
2023-04-16T02:49:33.857Z,32.33
2023-04-16T02:50:33.929Z,32.34
2023-04-16T02:51:33.961Z,32.31
2023-04-16T02:52:33.962Z,32.33
2023-04-16T02:53:34.083Z,32.32
2023-04-16T02:54:34.034Z,32.31
2023-04-16T02:55:34.093Z,32.25
2023-04-16T02:56:34.119Z,32.26
2023-04-16T02:57:34.167Z,32.30
2023-04-16T02:58:34.166Z,32.33
2023-04-16T02:59:34.238Z,32.34
2023-04-16T03:00:34.243Z,32.29
2023-04-16T03:01:34.311Z,32.31
2023-04-16T03:02:34.374Z,32.31
2023-04-16T03:03:34.352Z,32.36
2023-04-16T03:04:34.449Z,32.33
2023-04-16T03:05:34.404Z,32.24
2023-04-16T03:06:34.477Z,32.33
2023-04-16T03:07:34.519Z,32.35
2023-04-16T03:08:34.637Z,32.30
2023-04-16T03:09:34.577Z,32.32
2023-04-16T03:10:34.610Z,32.26
2023-04-16T03:11:34.607Z,32.25
2023-04-16T03:12:34.679Z,32.30
2023-04-16T03:13:34.731Z,32.34
2023-04-16T03:14:34.740Z,32.36
2023-04-16T03:15:34.864Z,32.32
2023-04-16T03:16:34.833Z,32.30
2023-04-16T03:17:34.876Z,32.33
2023-04-16T03:18:34.876Z,32.36
2023-04-16T03:19:34.942Z,32.33
2023-04-16T03:20:34.947Z,32.32
2023-04-16T03:21:34.990Z,32.33
2023-04-16T03:22:35.028Z,32.31
2023-04-16T03:23:35.072Z,32.33
2023-04-16T03:24:35.119Z,32.31
2023-04-16T03:25:35.140Z,32.35
2023-04-16T03:26:35.156Z,32.32
2023-04-16T03:27:35.185Z,32.30
2023-04-16T03:28:35.217Z,32.33
2023-04-16T03:29:35.249Z,32.36
2023-04-16T03:30:35.300Z,32.36
2023-04-16T03:31:35.383Z,32.34
2023-04-16T03:32:35.398Z,32.35
2023-04-16T03:33:35.439Z,32.29
2023-04-16T03:34:35.457Z,32.32
2023-04-16T03:35:35.504Z,32.32
2023-04-16T03:36:35.537Z,32.32
2023-04-16T03:37:35.550Z,32.33
2023-04-16T03:38:35.630Z,32.33
2023-04-16T03:39:35.637Z,32.31
2023-04-16T03:40:35.696Z,32.32
2023-04-16T03:41:35.719Z,32.28
2023-04-16T03:42:35.755Z,32.31
2023-04-16T03:43:35.828Z,32.33
2023-04-16T03:44:35.821Z,32.30
2023-04-16T03:45:35.884Z,32.31
2023-04-16T03:46:35.943Z,32.32
2023-04-16T03:47:36.003Z,32.33
2023-04-16T03:48:35.999Z,32.33
2023-04-16T03:49:36.020Z,32.34
2023-04-16T03:50:36.056Z,32.29
2023-04-16T03:51:36.114Z,32.26
2023-04-16T03:52:36.176Z,32.31
2023-04-16T03:53:36.173Z,32.31
2023-04-16T03:54:36.227Z,32.29
2023-04-16T03:55:36.247Z,32.26
2023-04-16T03:56:36.303Z,32.36
2023-04-16T03:57:36.363Z,32.28
2023-04-16T03:58:36.391Z,32.31
2023-04-16T03:59:36.414Z,32.31
2023-04-16T04:00:36.431Z,32.29
2023-04-16T04:01:36.532Z,32.30
2023-04-16T04:02:36.739Z,32.31
2023-04-16T04:03:36.952Z,32.33
2023-04-16T04:04:36.736Z,32.32
2023-04-16T04:05:36.641Z,32.32
2023-04-16T04:06:36.680Z,32.33
2023-04-16T04:07:36.753Z,32.31
2023-04-16T04:08:36.859Z,32.30
2023-04-16T04:09:36.786Z,32.28
2023-04-16T04:10:36.838Z,32.25
2023-04-16T04:11:36.917Z,32.30
2023-04-16T04:12:36.908Z,32.32
2023-04-16T04:13:36.952Z,32.29
2023-04-16T04:14:36.989Z,32.28
2023-04-16T04:15:37.045Z,32.29
2023-04-16T04:16:37.148Z,32.27
2023-04-16T04:17:37.150Z,32.32
2023-04-16T04:18:37.152Z,32.30
2023-04-16T04:19:40.249Z,32.29
2023-04-16T04:20:38.197Z,32.27
2023-04-16T04:21:37.174Z,32.30
2023-04-16T04:22:37.149Z,32.36
2023-04-16T04:23:37.183Z,32.33
2023-04-16T04:24:37.176Z,32.31
2023-04-16T04:25:37.167Z,32.25
2023-04-16T04:26:37.168Z,32.30
2023-04-16T04:27:37.137Z,32.33
2023-04-16T04:28:37.103Z,32.27
2023-04-16T04:29:37.133Z,32.27
2023-04-16T04:30:37.121Z,32.28
2023-04-16T04:31:38.062Z,32.33
2023-04-16T04:32:37.222Z,32.31
2023-04-16T04:33:37.223Z,32.32
2023-04-16T04:34:37.267Z,32.32
2023-04-16T04:35:37.312Z,32.31
2023-04-16T04:36:37.355Z,32.31
2023-04-16T04:37:37.393Z,32.28
2023-04-16T04:38:37.463Z,32.35
2023-04-16T04:39:37.471Z,32.33
2023-04-16T04:40:37.523Z,32.32
2023-04-16T04:41:37.582Z,32.33
2023-04-16T04:42:37.663Z,32.32
2023-04-16T04:43:37.683Z,32.31
2023-04-16T04:44:37.679Z,32.31
2023-04-16T04:45:37.804Z,32.26
2023-04-16T04:46:37.768Z,32.31
2023-04-16T04:47:37.868Z,32.32
2023-04-16T04:48:37.884Z,32.33
2023-04-16T04:49:37.944Z,32.31
2023-04-16T04:50:37.962Z,32.33
2023-04-16T04:51:38.030Z,32.30
2023-04-16T04:52:38.077Z,32.33
2023-04-16T04:53:38.094Z,32.32
2023-04-16T04:54:38.161Z,32.31
2023-04-16T04:55:38.218Z,32.27
2023-04-16T04:56:38.236Z,32.30
2023-04-16T04:57:38.260Z,32.29
2023-04-16T04:58:38.304Z,32.26
2023-04-16T04:59:38.361Z,32.31
2023-04-16T05:00:38.420Z,32.31
2023-04-16T05:01:38.567Z,32.34
2023-04-16T05:02:38.536Z,32.34
2023-04-16T05:03:38.872Z,32.26
2023-04-16T05:04:38.665Z,32.25
2023-04-16T05:05:38.665Z,32.31
2023-04-16T05:06:38.695Z,32.26
2023-04-16T05:07:38.748Z,32.29
2023-04-16T05:08:38.813Z,32.28
2023-04-16T05:09:38.801Z,32.30
2023-04-16T05:10:38.855Z,32.34
2023-04-16T05:11:38.873Z,32.33
2023-04-16T05:12:38.934Z,32.32
2023-04-16T05:13:38.977Z,32.29
2023-04-16T05:14:39.029Z,32.30
2023-04-16T05:15:39.084Z,32.27
2023-04-16T05:16:39.191Z,32.26
2023-04-16T05:17:39.161Z,32.25
2023-04-16T05:18:39.210Z,32.24
2023-04-16T05:19:39.274Z,32.29
2023-04-16T05:20:39.300Z,32.24
2023-04-16T05:21:39.383Z,32.29
2023-04-16T05:22:39.397Z,32.25
2023-04-16T05:23:39.451Z,32.27
2023-04-16T05:24:39.520Z,32.28
2023-04-16T05:25:39.532Z,32.25
2023-04-16T05:26:39.615Z,32.25
2023-04-16T05:27:39.623Z,32.31
2023-04-16T05:28:39.702Z,32.29
2023-04-16T05:29:39.743Z,32.33
2023-04-16T05:30:39.790Z,32.28
2023-04-16T05:31:39.834Z,32.31
2023-04-16T05:32:39.980Z,32.29
2023-04-16T05:33:39.918Z,32.35
2023-04-16T05:34:39.968Z,32.31
2023-04-16T05:35:40.147Z,32.29
2023-04-16T05:36:40.103Z,32.27
2023-04-16T05:37:40.129Z,32.24
2023-04-16T05:38:40.195Z,32.25
2023-04-16T05:39:40.226Z,32.27
2023-04-16T05:40:40.259Z,32.24
2023-04-16T05:41:40.316Z,32.30
2023-04-16T05:42:40.363Z,32.26
2023-04-16T05:43:40.398Z,32.31
2023-04-16T05:44:40.440Z,32.31
2023-04-16T05:45:40.483Z,32.26
2023-04-16T05:46:40.576Z,32.29
2023-04-16T05:47:40.625Z,32.26
2023-04-16T05:48:40.646Z,32.26
2023-04-16T05:49:40.683Z,32.30
2023-04-16T05:50:40.740Z,32.29
2023-04-16T05:51:40.772Z,32.26
2023-04-16T05:52:40.856Z,32.28
2023-04-16T05:53:40.876Z,32.31
2023-04-16T05:54:40.943Z,32.27
2023-04-16T05:55:40.983Z,32.33
2023-04-16T05:56:41.079Z,32.30
2023-04-16T05:57:41.079Z,32.30
2023-04-16T05:58:41.174Z,32.30
2023-04-16T05:59:41.184Z,32.34
2023-04-16T06:00:41.204Z,32.30
2023-04-16T06:01:41.273Z,32.28
2023-04-16T06:02:41.654Z,32.26
2023-04-16T06:03:41.486Z,32.30
2023-04-16T06:04:41.436Z,32.27
2023-04-16T06:05:41.499Z,32.29
2023-04-16T06:06:41.494Z,32.32
2023-04-16T06:07:41.531Z,32.28
2023-04-16T06:08:41.618Z,32.29
2023-04-16T06:09:41.662Z,32.32
2023-04-16T06:10:41.665Z,32.30
2023-04-16T06:11:41.720Z,32.30
2023-04-16T06:12:41.781Z,32.30
2023-04-16T06:13:41.802Z,32.27
2023-04-16T06:14:41.873Z,32.25
2023-04-16T06:15:41.958Z,32.33
2023-04-16T06:16:41.945Z,32.29
2023-04-16T06:17:42.053Z,32.30
2023-04-16T06:18:42.048Z,32.25
2023-04-16T06:19:42.123Z,32.28
2023-04-16T06:20:42.167Z,32.27
2023-04-16T06:21:42.203Z,32.27
2023-04-16T06:22:42.250Z,32.29
2023-04-16T06:23:42.345Z,32.30
2023-04-16T06:24:42.350Z,32.33
2023-04-16T06:25:42.398Z,32.32
2023-04-16T06:26:42.437Z,32.30
2023-04-16T06:27:42.511Z,32.26
2023-04-16T06:28:42.547Z,32.28
2023-04-16T06:29:42.606Z,32.28
2023-04-16T06:30:44.508Z,32.29
2023-04-16T06:31:42.731Z,32.27
2023-04-16T06:32:42.788Z,32.25
2023-04-16T06:33:42.796Z,32.28
2023-04-16T06:34:42.861Z,32.31
2023-04-16T06:35:42.924Z,32.28
2023-04-16T06:36:42.940Z,32.31
2023-04-16T06:37:42.994Z,32.29
2023-04-16T06:38:43.101Z,32.26
2023-04-16T06:39:43.079Z,32.31
2023-04-16T06:40:43.147Z,32.29
2023-04-16T06:41:43.182Z,32.31
2023-04-16T06:42:45.310Z,32.27
2023-04-16T06:43:43.289Z,32.27
2023-04-16T06:44:43.341Z,32.28
2023-04-16T06:45:43.396Z,32.28
2023-04-16T06:46:43.471Z,32.26
2023-04-16T06:47:43.509Z,32.28
2023-04-16T06:48:43.542Z,32.27
2023-04-16T06:49:43.597Z,32.29
2023-04-16T06:50:43.597Z,32.28
2023-04-16T06:51:43.649Z,32.29
2023-04-16T06:52:43.702Z,32.27
2023-04-16T06:53:43.745Z,32.28
2023-04-16T06:54:43.804Z,32.27
2023-04-16T06:55:43.837Z,32.27
2023-04-16T06:56:43.864Z,32.27
2023-04-16T06:57:43.940Z,32.27
2023-04-16T06:58:43.975Z,32.25
2023-04-16T06:59:44.012Z,32.24
2023-04-16T07:00:44.129Z,32.24
2023-04-16T07:01:44.123Z,32.25
2023-04-16T07:02:44.342Z,32.25
2023-04-16T07:03:44.278Z,32.23
2023-04-16T07:04:44.252Z,32.23
2023-04-16T07:05:44.309Z,32.24
2023-04-16T07:06:44.327Z,32.24
2023-04-16T07:07:44.369Z,32.22
2023-04-16T07:08:44.438Z,32.22
2023-04-16T07:09:44.450Z,32.22
2023-04-16T07:10:44.513Z,32.23
2023-04-16T07:11:44.560Z,32.23
2023-04-16T07:12:44.596Z,32.27
2023-04-16T07:13:44.650Z,32.25
2023-04-16T07:14:44.672Z,32.24
2023-04-16T07:15:44.709Z,32.24
2023-04-16T07:16:44.783Z,32.23
2023-04-16T07:17:44.827Z,32.25
2023-04-16T07:18:44.881Z,32.23
2023-04-16T07:19:44.903Z,32.23
2023-04-16T07:20:44.933Z,32.24
2023-04-16T07:21:44.990Z,32.23
2023-04-16T07:22:45.006Z,32.24
2023-04-16T07:23:45.047Z,32.25
2023-04-16T07:24:45.071Z,32.25
2023-04-16T07:25:46.004Z,32.23
2023-04-16T07:26:45.174Z,32.24
2023-04-16T07:27:45.212Z,32.22
2023-04-16T07:28:45.271Z,32.25
2023-04-16T07:29:45.282Z,32.26
2023-04-16T07:30:45.359Z,32.23
2023-04-16T07:31:45.403Z,32.24
2023-04-16T07:32:45.483Z,32.24
2023-04-16T07:33:45.490Z,32.27
2023-04-16T07:34:45.501Z,32.28
2023-04-16T07:35:45.558Z,32.26
2023-04-16T07:36:45.594Z,32.23
2023-04-16T07:37:45.653Z,32.24
2023-04-16T07:38:45.697Z,32.24
2023-04-16T07:39:45.726Z,32.24
2023-04-16T07:40:45.775Z,32.27
2023-04-16T07:41:45.830Z,32.25
2023-04-16T07:42:45.881Z,32.24
2023-04-16T07:43:45.924Z,32.23
2023-04-16T07:44:45.977Z,32.26
2023-04-16T07:45:45.975Z,32.25
2023-04-16T07:46:47.694Z,32.29
2023-04-16T07:47:46.128Z,32.25
2023-04-16T07:48:46.126Z,32.30
2023-04-16T07:49:46.178Z,32.27
2023-04-16T07:50:46.235Z,32.28
2023-04-16T07:51:46.255Z,32.26
2023-04-16T07:52:46.303Z,32.23
2023-04-16T07:53:46.346Z,32.22
2023-04-16T07:54:46.386Z,32.22
2023-04-16T07:55:46.394Z,32.27
2023-04-16T07:56:46.466Z,32.18
2023-04-16T07:57:46.499Z,32.23
2023-04-16T07:58:46.533Z,32.23
2023-04-16T07:59:46.557Z,32.22
2023-04-16T08:00:46.608Z,32.22
2023-04-16T08:01:46.650Z,32.21
2023-04-16T08:02:46.776Z,32.22
2023-04-16T08:03:46.949Z,32.20
2023-04-16T08:04:46.964Z,32.21
2023-04-16T08:05:46.808Z,32.19
2023-04-16T08:06:46.857Z,32.18
2023-04-16T08:07:46.888Z,32.17
2023-04-16T08:08:46.925Z,32.19
2023-04-16T08:09:46.971Z,32.19
2023-04-16T08:10:47.019Z,32.16
2023-04-16T08:11:47.092Z,32.19
2023-04-16T08:12:47.098Z,32.19
2023-04-16T08:13:47.135Z,32.20
2023-04-16T08:14:47.183Z,32.19
2023-04-16T08:15:47.265Z,32.19
2023-04-16T08:16:47.214Z,32.21
2023-04-16T08:17:47.306Z,32.18
2023-04-16T08:18:47.318Z,32.17
2023-04-16T08:19:47.363Z,32.13
2023-04-16T08:20:47.378Z,32.11
2023-04-16T08:21:47.457Z,32.14
2023-04-16T08:22:47.457Z,32.13
2023-04-16T08:23:47.482Z,32.11
2023-04-16T08:24:47.532Z,32.14
2023-04-16T08:25:47.581Z,32.13
2023-04-16T08:26:47.611Z,32.12
2023-04-16T08:27:47.639Z,32.16
2023-04-16T08:28:47.687Z,32.18
2023-04-16T08:29:47.740Z,32.13
2023-04-16T08:30:47.801Z,32.13
2023-04-16T08:31:47.893Z,32.14
2023-04-16T08:32:49.937Z,32.12
2023-04-16T08:33:47.868Z,32.14
2023-04-16T08:34:47.882Z,32.12
2023-04-16T08:35:47.899Z,32.07
2023-04-16T08:36:47.919Z,32.07
2023-04-16T08:37:47.977Z,32.05
2023-04-16T08:38:48.000Z,32.07
2023-04-16T08:39:48.049Z,32.07
2023-04-16T08:40:48.062Z,32.02
2023-04-16T08:41:48.110Z,32.04
2023-04-16T08:42:48.113Z,32.04
2023-04-16T08:43:48.185Z,32.09
2023-04-16T08:44:49.000Z,32.10
2023-04-16T08:45:49.164Z,32.09
2023-04-16T08:46:48.290Z,32.04
2023-04-16T08:47:48.379Z,32.03
2023-04-16T08:48:48.314Z,32.07
2023-04-16T08:49:48.352Z,32.10
2023-04-16T08:50:48.333Z,32.06
2023-04-16T08:51:48.394Z,32.06
2023-04-16T08:52:48.403Z,32.06
2023-04-16T08:53:48.470Z,32.05
2023-04-16T08:54:56.584Z,32.00
2023-04-16T08:55:49.476Z,32.03
2023-04-16T08:56:48.458Z,32.04
2023-04-16T08:57:48.426Z,32.06
2023-04-16T08:58:48.435Z,32.04
2023-04-16T08:59:48.441Z,32.00
2023-04-16T09:00:48.440Z,32.05
2023-04-16T09:01:48.491Z,32.06
2023-04-16T09:02:48.655Z,31.98
2023-04-16T09:03:48.590Z,32.01
2023-04-16T09:04:48.438Z,32.03
2023-04-16T09:05:48.401Z,32.06
2023-04-16T09:06:48.413Z,31.98
2023-04-16T09:07:48.408Z,32.00
2023-04-16T09:08:48.356Z,31.98
2023-04-16T09:09:48.406Z,31.99
2023-04-16T09:10:48.383Z,31.97
2023-04-16T09:11:48.412Z,31.99
2023-04-16T09:12:48.431Z,31.93
2023-04-16T09:13:48.471Z,31.95
2023-04-16T09:14:48.470Z,31.95
2023-04-16T09:15:48.490Z,31.92
2023-04-16T09:16:48.537Z,31.91
2023-04-16T09:17:48.674Z,31.89
2023-04-16T09:18:48.643Z,31.88
2023-04-16T09:19:48.668Z,31.91
2023-04-16T09:20:48.644Z,31.93
2023-04-16T09:21:48.680Z,31.94
2023-04-16T09:22:48.742Z,31.90
2023-04-16T09:23:48.768Z,31.90
2023-04-16T09:24:48.787Z,31.88
2023-04-16T09:25:48.822Z,31.87
2023-04-16T09:26:48.876Z,31.87
2023-04-16T09:27:48.862Z,31.88
2023-04-16T09:28:48.913Z,31.90
2023-04-16T09:29:48.941Z,31.87
2023-04-16T09:30:48.994Z,31.88
2023-04-16T09:31:49.038Z,31.88
2023-04-16T09:32:49.038Z,31.89
2023-04-16T09:33:49.091Z,31.84
2023-04-16T09:34:49.075Z,31.86
2023-04-16T09:35:49.105Z,31.82
2023-04-16T09:36:49.154Z,31.83
2023-04-16T09:37:49.178Z,31.83
2023-04-16T09:38:49.204Z,31.84
2023-04-16T09:39:49.234Z,31.82
2023-04-16T09:40:49.291Z,31.79
2023-04-16T09:41:49.296Z,31.81
2023-04-16T09:42:49.348Z,31.82
2023-04-16T09:43:49.385Z,31.79
2023-04-16T09:44:49.405Z,31.80
2023-04-16T09:45:49.497Z,31.79
2023-04-16T09:46:49.458Z,31.80
2023-04-16T09:47:49.533Z,31.79
2023-04-16T09:48:49.526Z,31.78
2023-04-16T09:49:49.564Z,31.80
2023-04-16T09:50:49.591Z,31.78
2023-04-16T09:51:49.643Z,31.80
2023-04-16T09:52:49.659Z,31.80
2023-04-16T09:53:49.700Z,31.81
2023-04-16T09:54:49.725Z,31.81
2023-04-16T09:55:49.783Z,31.83
2023-04-16T09:56:49.780Z,31.84
2023-04-16T09:57:49.830Z,31.83
2023-04-16T09:58:49.919Z,31.85
2023-04-16T09:59:49.918Z,31.84
2023-04-16T10:00:49.987Z,31.84
2023-04-16T10:01:50.192Z,31.82
2023-04-16T10:02:50.771Z,31.80
2023-04-16T10:03:50.152Z,31.78
2023-04-16T10:04:50.407Z,31.79
2023-04-16T10:05:50.068Z,31.82
2023-04-16T10:06:50.072Z,31.82
2023-04-16T10:07:50.111Z,31.80
2023-04-16T10:08:50.461Z,31.78
2023-04-16T10:09:50.160Z,31.80
2023-04-16T10:10:50.190Z,31.79
2023-04-16T10:11:50.216Z,31.78
2023-04-16T10:12:50.210Z,31.79
2023-04-16T10:13:50.280Z,31.80
2023-04-16T10:14:50.540Z,31.81
2023-04-16T10:15:50.334Z,31.81
2023-04-16T10:16:50.357Z,31.80
2023-04-16T10:17:50.411Z,31.76
2023-04-16T10:18:50.417Z,31.77
2023-04-16T10:19:50.391Z,31.81
2023-04-16T10:20:50.437Z,31.77
2023-04-16T10:21:50.466Z,31.79
2023-04-16T10:22:50.487Z,31.78
2023-04-16T10:23:50.505Z,31.80
2023-04-16T10:24:50.543Z,31.77
2023-04-16T10:25:50.585Z,31.77
2023-04-16T10:26:50.620Z,31.78
2023-04-16T10:27:50.628Z,31.79
2023-04-16T10:28:50.648Z,31.79
2023-04-16T10:29:50.675Z,31.77
2023-04-16T10:30:50.758Z,31.77
2023-04-16T10:31:50.747Z,31.78
2023-04-16T10:32:50.761Z,31.78
2023-04-16T10:33:50.798Z,31.77
2023-04-16T10:34:50.793Z,31.77
2023-04-16T10:36:01.190Z,31.79
2023-04-16T10:36:51.830Z,31.80
2023-04-16T10:37:50.808Z,31.78
2023-04-16T10:38:50.831Z,31.75
2023-04-16T10:39:50.820Z,31.78
2023-04-16T10:40:50.791Z,31.80
2023-04-16T10:41:50.796Z,31.79
2023-04-16T10:42:50.780Z,31.81
2023-04-16T10:43:50.826Z,31.76
2023-04-16T10:44:50.764Z,31.78
2023-04-16T10:45:50.763Z,31.79
2023-04-16T10:46:50.740Z,31.78
2023-04-16T10:47:50.748Z,31.75
2023-04-16T10:48:51.000Z,31.77
2023-04-16T10:49:50.718Z,31.77
2023-04-16T10:50:52.071Z,31.76
2023-04-16T10:51:50.701Z,31.76
2023-04-16T10:52:50.712Z,31.77
2023-04-16T10:53:50.696Z,31.78
2023-04-16T10:54:50.687Z,31.78
2023-04-16T10:55:50.672Z,31.77
2023-04-16T10:56:50.664Z,31.78
2023-04-16T10:57:50.664Z,31.78
2023-04-16T10:58:50.694Z,31.78
2023-04-16T10:59:50.694Z,31.79
2023-04-16T11:00:50.733Z,31.79
2023-04-16T11:01:50.836Z,31.82
2023-04-16T11:02:50.852Z,31.82
2023-04-16T11:03:50.958Z,31.83
2023-04-16T11:04:50.850Z,31.83
2023-04-16T11:05:50.835Z,31.80
2023-04-16T11:06:50.837Z,31.82
2023-04-16T11:07:50.853Z,31.81
2023-04-16T11:08:54.502Z,31.84
2023-04-16T11:09:50.890Z,31.84
2023-04-16T11:10:50.906Z,31.83
2023-04-16T11:11:50.852Z,31.85
2023-04-16T11:12:50.833Z,31.85
2023-04-16T11:13:50.847Z,31.84
2023-04-16T11:14:50.839Z,31.85
2023-04-16T11:15:50.849Z,31.85
2023-04-16T11:16:50.811Z,31.84
2023-04-16T11:17:51.942Z,31.86
2023-04-16T11:18:51.899Z,31.85
2023-04-16T11:19:50.785Z,31.86
2023-04-16T11:20:50.793Z,31.89
2023-04-16T11:21:50.764Z,31.90
2023-04-16T11:22:50.904Z,31.87
2023-04-16T11:23:50.784Z,31.88
2023-04-16T11:24:50.779Z,31.87
2023-04-16T11:25:50.744Z,31.86
2023-04-16T11:26:50.717Z,31.89
2023-04-16T11:27:50.723Z,31.87
2023-04-16T11:28:50.709Z,31.91
2023-04-16T11:29:50.735Z,31.90
2023-04-16T11:30:50.736Z,31.89
2023-04-16T11:31:50.795Z,31.90
2023-04-16T11:32:50.733Z,31.88
2023-04-16T11:33:50.678Z,31.89
2023-04-16T11:34:50.652Z,31.91
2023-04-16T11:35:50.682Z,31.90
2023-04-16T11:36:50.713Z,31.92
2023-04-16T11:37:50.648Z,31.91
2023-04-16T11:38:50.655Z,31.87
2023-04-16T11:39:50.641Z,31.89
2023-04-16T11:40:50.654Z,31.89
2023-04-16T11:41:50.609Z,31.88
2023-04-16T11:42:50.605Z,31.89
2023-04-16T11:43:50.608Z,31.88
2023-04-16T11:44:50.597Z,31.90
2023-04-16T11:45:50.621Z,31.91
2023-04-16T11:46:50.611Z,31.89
2023-04-16T11:47:50.603Z,31.88
2023-04-16T11:48:50.577Z,31.89
2023-04-16T11:49:50.600Z,31.90
2023-04-16T11:50:50.576Z,31.88
2023-04-16T11:51:50.564Z,31.89
2023-04-16T11:52:50.523Z,31.88
2023-04-16T11:53:50.553Z,31.88
2023-04-16T11:54:50.519Z,31.87
2023-04-16T11:55:50.534Z,31.88
2023-04-16T11:56:50.549Z,31.90
2023-04-16T11:57:51.006Z,31.88
2023-04-16T11:58:50.488Z,31.90
2023-04-16T12:00:02.381Z,31.89
2023-04-16T12:00:51.512Z,31.90
2023-04-16T12:01:50.592Z,31.89
2023-04-16T12:02:50.588Z,31.90
2023-04-16T12:03:50.727Z,31.91
2023-04-16T12:04:50.559Z,31.89
2023-04-16T12:05:50.461Z,31.92
2023-04-16T12:06:50.465Z,31.90
2023-04-16T12:07:50.451Z,31.93
2023-04-16T12:08:50.444Z,31.91
2023-04-16T12:09:50.432Z,31.89
2023-04-16T12:10:50.436Z,31.90
2023-04-16T12:11:50.394Z,31.91
2023-04-16T12:12:50.405Z,31.89
2023-04-16T12:13:50.411Z,31.88
2023-04-16T12:14:50.383Z,31.89
2023-04-16T12:15:50.369Z,31.89
2023-04-16T12:16:50.454Z,31.92
2023-04-16T12:17:50.442Z,31.90
2023-04-16T12:18:50.377Z,31.88
2023-04-16T12:19:50.379Z,31.89
2023-04-16T12:20:50.346Z,31.89
2023-04-16T12:21:50.336Z,31.91
2023-04-16T12:22:50.315Z,31.89
2023-04-16T12:23:50.344Z,31.91
2023-04-16T12:24:50.339Z,31.92
2023-04-16T12:25:50.314Z,31.92
2023-04-16T12:26:50.308Z,31.91
2023-04-16T12:27:52.334Z,31.92
2023-04-16T12:28:50.281Z,31.91
2023-04-16T12:29:50.277Z,31.90
2023-04-16T12:30:50.346Z,31.91
2023-04-16T12:31:50.284Z,31.91
2023-04-16T12:32:50.325Z,31.93
2023-04-16T12:33:50.249Z,31.91
2023-04-16T12:34:50.258Z,31.91
2023-04-16T12:35:50.237Z,31.92
2023-04-16T12:36:50.243Z,31.92
2023-04-16T12:37:50.220Z,31.91
2023-04-16T12:38:50.226Z,31.92
2023-04-16T12:39:50.199Z,31.92
2023-04-16T12:40:50.210Z,31.91
2023-04-16T12:41:50.187Z,31.92
2023-04-16T12:42:50.167Z,31.93
2023-04-16T12:43:50.193Z,31.93
2023-04-16T12:44:50.201Z,31.92
2023-04-16T12:45:50.181Z,31.93
2023-04-16T12:46:50.186Z,31.92
2023-04-16T12:47:50.183Z,31.91
2023-04-16T12:48:50.155Z,31.91
2023-04-16T12:49:50.117Z,31.92
2023-04-16T12:50:50.103Z,31.91
2023-04-16T12:51:50.143Z,31.92
2023-04-16T12:52:50.100Z,31.92